sensor_id;sensor_type;location;lat;lon;timestamp;P1;durP1;ratioP1;P2;durP2;ratioP2
10315;SDS011;5203;48.976;8.306;2022-09-06T00:00:35;5.55;;;4.80;;
10315;SDS011;5203;48.976;8.306;2022-09-06T00:03:01;4.95;;;4.47;;
10315;SDS011;5203;48.976;8.306;2022-09-06T00:05:27;5.53;;;5.03;;
10315;SDS011;5203;48.976;8.306;2022-09-06T00:07:56;4.95;;;4.55;;
10315;SDS011;5203;48.976;8.306;2022-09-06T00:10:27;5.53;;;4.60;;
10315;SDS011;5203;48.976;8.306;2022-09-06T00:12:53;5.00;;;4.70;;
10315;SDS011;5203;48.976;8.306;2022-09-06T00:15:20;6.82;;;4.50;;
10315;SDS011;5203;48.976;8.306;2022-09-06T00:17:46;5.82;;;4.45;;
10315;SDS011;5203;48.976;8.306;2022-09-06T00:20:13;5.35;;;4.85;;
10315;SDS011;5203;48.976;8.306;2022-09-06T00:22:39;5.03;;;4.63;;
10315;SDS011;5203;48.976;8.306;2022-09-06T00:25:05;5.38;;;4.70;;
10315;SDS011;5203;48.976;8.306;2022-09-06T00:27:32;5.15;;;4.65;;
10315;SDS011;5203;48.976;8.306;2022-09-06T00:29:58;5.00;;;4.50;;
10315;SDS011;5203;48.976;8.306;2022-09-06T00:32:24;5.35;;;4.38;;
10315;SDS011;5203;48.976;8.306;2022-09-06T00:34:50;5.05;;;4.55;;
10315;SDS011;5203;48.976;8.306;2022-09-06T00:37:16;4.85;;;4.43;;
10315;SDS011;5203;48.976;8.306;2022-09-06T00:39:41;7.00;;;4.78;;
10315;SDS011;5203;48.976;8.306;2022-09-06T00:42:07;5.05;;;4.53;;
10315;SDS011;5203;48.976;8.306;2022-09-06T00:44:34;4.70;;;4.35;;
10315;SDS011;5203;48.976;8.306;2022-09-06T00:47:00;6.63;;;5.15;;
10315;SDS011;5203;48.976;8.306;2022-09-06T00:49:30;6.78;;;6.18;;
10315;SDS011;5203;48.976;8.306;2022-09-06T00:52:00;7.78;;;6.97;;
10315;SDS011;5203;48.976;8.306;2022-09-06T00:54:30;7.20;;;6.50;;
10315;SDS011;5203;48.976;8.306;2022-09-06T00:56:56;7.10;;;6.45;;
10315;SDS011;5203;48.976;8.306;2022-09-06T00:59:23;5.35;;;4.85;;
10315;SDS011;5203;48.976;8.306;2022-09-06T01:01:51;6.15;;;5.55;;
10315;SDS011;5203;48.976;8.306;2022-09-06T01:04:17;4.85;;;4.53;;
10315;SDS011;5203;48.976;8.306;2022-09-06T01:06:46;6.07;;;5.00;;
10315;SDS011;5203;48.976;8.306;2022-09-06T01:12:31;7.88;;;5.28;;
10315;SDS011;5203;48.976;8.306;2022-09-06T01:20:29;6.38;;;5.60;;
10315;SDS011;5203;48.976;8.306;2022-09-06T01:28:24;9.88;;;5.75;;
10315;SDS011;5203;48.976;8.306;2022-09-06T01:31:04;6.97;;;5.88;;
10315;SDS011;5203;48.976;8.306;2022-09-06T01:33:45;5.65;;;5.15;;
10315;SDS011;5203;48.976;8.306;2022-09-06T01:36:19;7.90;;;5.57;;
10315;SDS011;5203;48.976;8.306;2022-09-06T01:38:48;5.97;;;5.40;;
10315;SDS011;5203;48.976;8.306;2022-09-06T01:41:14;7.25;;;5.45;;
10315;SDS011;5203;48.976;8.306;2022-09-06T01:43:40;6.35;;;5.75;;
10315;SDS011;5203;48.976;8.306;2022-09-06T01:56:42;6.50;;;5.90;;
10315;SDS011;5203;48.976;8.306;2022-09-06T02:04:52;5.57;;;5.07;;
10315;SDS011;5203;48.976;8.306;2022-09-06T02:07:27;6.50;;;6.00;;
10315;SDS011;5203;48.976;8.306;2022-09-06T02:09:57;6.45;;;5.93;;
10315;SDS011;5203;48.976;8.306;2022-09-06T02:12:38;6.97;;;6.03;;
10315;SDS011;5203;48.976;8.306;2022-09-06T02:15:10;6.72;;;6.13;;
10315;SDS011;5203;48.976;8.306;2022-09-06T02:17:45;6.10;;;5.60;;
10315;SDS011;5203;48.976;8.306;2022-09-06T02:20:19;6.78;;;6.18;;
10315;SDS011;5203;48.976;8.306;2022-09-06T02:22:54;9.20;;;6.28;;
10315;SDS011;5203;48.976;8.306;2022-09-06T02:25:33;6.90;;;6.18;;
10315;SDS011;5203;48.976;8.306;2022-09-06T02:28:05;6.47;;;5.88;;
10315;SDS011;5203;48.976;8.306;2022-09-06T02:30:34;7.10;;;5.60;;
10315;SDS011;5203;48.976;8.306;2022-09-06T02:33:08;6.10;;;5.70;;
10315;SDS011;5203;48.976;8.306;2022-09-06T02:35:44;6.07;;;5.68;;
10315;SDS011;5203;48.976;8.306;2022-09-06T02:38:15;6.32;;;5.72;;
10315;SDS011;5203;48.976;8.306;2022-09-06T02:40:42;8.38;;;5.70;;
10315;SDS011;5203;48.976;8.306;2022-09-06T02:43:09;5.05;;;4.75;;
10315;SDS011;5203;48.976;8.306;2022-09-06T02:45:34;7.30;;;6.00;;
10315;SDS011;5203;48.976;8.306;2022-09-06T02:48:00;7.15;;;6.18;;
10315;SDS011;5203;48.976;8.306;2022-09-06T02:50:26;8.77;;;5.85;;
10315;SDS011;5203;48.976;8.306;2022-09-06T02:55:28;6.10;;;5.63;;
10315;SDS011;5203;48.976;8.306;2022-09-06T02:57:53;6.78;;;6.20;;
10315;SDS011;5203;48.976;8.306;2022-09-06T03:00:19;6.18;;;5.65;;
10315;SDS011;5203;48.976;8.306;2022-09-06T03:02:45;6.47;;;5.88;;
10315;SDS011;5203;48.976;8.306;2022-09-06T03:05:10;6.18;;;5.68;;
10315;SDS011;5203;48.976;8.306;2022-09-06T03:07:36;6.63;;;5.53;;
10315;SDS011;5203;48.976;8.306;2022-09-06T03:10:02;5.43;;;5.00;;
10315;SDS011;5203;48.976;8.306;2022-09-06T03:12:27;6.45;;;5.85;;
10315;SDS011;5203;48.976;8.306;2022-09-06T03:14:53;6.35;;;5.85;;
10315;SDS011;5203;48.976;8.306;2022-09-06T03:17:19;6.80;;;6.20;;
10315;SDS011;5203;48.976;8.306;2022-09-06T03:19:44;6.43;;;5.82;;
10315;SDS011;5203;48.976;8.306;2022-09-06T03:22:10;6.30;;;5.80;;
10315;SDS011;5203;48.976;8.306;2022-09-06T03:24:36;6.07;;;5.68;;
10315;SDS011;5203;48.976;8.306;2022-09-06T03:27:02;5.93;;;5.40;;
10315;SDS011;5203;48.976;8.306;2022-09-06T03:29:27;6.50;;;5.90;;
10315;SDS011;5203;48.976;8.306;2022-09-06T03:31:53;6.03;;;5.45;;
10315;SDS011;5203;48.976;8.306;2022-09-06T03:34:19;6.43;;;5.32;;
10315;SDS011;5203;48.976;8.306;2022-09-06T03:36:44;5.80;;;5.40;;
10315;SDS011;5203;48.976;8.306;2022-09-06T03:39:10;6.35;;;5.88;;
10315;SDS011;5203;48.976;8.306;2022-09-06T03:41:35;5.80;;;5.40;;
10315;SDS011;5203;48.976;8.306;2022-09-06T03:44:02;5.70;;;5.20;;
10315;SDS011;5203;48.976;8.306;2022-09-06T03:46:28;6.07;;;5.60;;
10315;SDS011;5203;48.976;8.306;2022-09-06T03:48:55;6.50;;;5.70;;
10315;SDS011;5203;48.976;8.306;2022-09-06T03:51:21;6.10;;;5.60;;
10315;SDS011;5203;48.976;8.306;2022-09-06T03:53:48;6.40;;;5.90;;
10315;SDS011;5203;48.976;8.306;2022-09-06T03:56:13;6.18;;;5.68;;
10315;SDS011;5203;48.976;8.306;2022-09-06T03:58:39;6.20;;;5.60;;
10315;SDS011;5203;48.976;8.306;2022-09-06T04:01:06;7.68;;;5.68;;
10315;SDS011;5203;48.976;8.306;2022-09-06T04:03:34;6.20;;;5.65;;
10315;SDS011;5203;48.976;8.306;2022-09-06T04:06:00;6.13;;;5.63;;
10315;SDS011;5203;48.976;8.306;2022-09-06T04:08:27;5.70;;;5.30;;
10315;SDS011;5203;48.976;8.306;2022-09-06T04:10:53;6.53;;;6.03;;
10315;SDS011;5203;48.976;8.306;2022-09-06T04:13:19;7.00;;;6.30;;
10315;SDS011;5203;48.976;8.306;2022-09-06T04:15:46;5.65;;;5.25;;
10315;SDS011;5203;48.976;8.306;2022-09-06T04:18:12;6.22;;;5.72;;
10315;SDS011;5203;48.976;8.306;2022-09-06T04:20:38;6.45;;;5.85;;
10315;SDS011;5203;48.976;8.306;2022-09-06T04:23:04;5.68;;;5.18;;
10315;SDS011;5203;48.976;8.306;2022-09-06T04:25:29;6.20;;;5.57;;
10315;SDS011;5203;48.976;8.306;2022-09-06T04:27:55;5.85;;;4.90;;
10315;SDS011;5203;48.976;8.306;2022-09-06T04:30:21;6.00;;;5.20;;
10315;SDS011;5203;48.976;8.306;2022-09-06T04:32:46;5.35;;;4.97;;
10315;SDS011;5203;48.976;8.306;2022-09-06T04:35:12;8.20;;;5.95;;
10315;SDS011;5203;48.976;8.306;2022-09-06T04:37:38;6.15;;;5.53;;
10315;SDS011;5203;48.976;8.306;2022-09-06T04:40:04;5.70;;;5.25;;
10315;SDS011;5203;48.976;8.306;2022-09-06T04:42:31;7.63;;;5.57;;
10315;SDS011;5203;48.976;8.306;2022-09-06T04:44:56;7.25;;;5.50;;
10315;SDS011;5203;48.976;8.306;2022-09-06T04:47:22;6.05;;;5.55;;
10315;SDS011;5203;48.976;8.306;2022-09-06T04:49:49;5.50;;;5.10;;
10315;SDS011;5203;48.976;8.306;2022-09-06T04:52:15;4.53;;;4.22;;
10315;SDS011;5203;48.976;8.306;2022-09-06T04:54:42;5.95;;;5.40;;
10315;SDS011;5203;48.976;8.306;2022-09-06T04:57:07;6.15;;;5.55;;
10315;SDS011;5203;48.976;8.306;2022-09-06T04:59:33;5.72;;;5.15;;
10315;SDS011;5203;48.976;8.306;2022-09-06T05:01:59;5.80;;;5.30;;
10315;SDS011;5203;48.976;8.306;2022-09-06T05:04:25;6.28;;;5.40;;
10315;SDS011;5203;48.976;8.306;2022-09-06T05:09:26;5.40;;;5.00;;
10315;SDS011;5203;48.976;8.306;2022-09-06T05:11:52;6.18;;;5.00;;
10315;SDS011;5203;48.976;8.306;2022-09-06T05:14:18;5.47;;;4.95;;
10315;SDS011;5203;48.976;8.306;2022-09-06T05:16:44;5.60;;;5.10;;
10315;SDS011;5203;48.976;8.306;2022-09-06T05:19:10;6.30;;;4.60;;
10315;SDS011;5203;48.976;8.306;2022-09-06T05:21:36;5.35;;;4.88;;
10315;SDS011;5203;48.976;8.306;2022-09-06T05:24:02;5.10;;;4.70;;
10315;SDS011;5203;48.976;8.306;2022-09-06T05:26:28;5.57;;;5.18;;
10315;SDS011;5203;48.976;8.306;2022-09-06T05:28:54;6.10;;;5.60;;
10315;SDS011;5203;48.976;8.306;2022-09-06T05:31:24;5.43;;;5.10;;
10315;SDS011;5203;48.976;8.306;2022-09-06T05:33:51;6.25;;;5.57;;
10315;SDS011;5203;48.976;8.306;2022-09-06T05:36:18;5.90;;;5.38;;
10315;SDS011;5203;48.976;8.306;2022-09-06T05:38:44;6.28;;;5.75;;
10315;SDS011;5203;48.976;8.306;2022-09-06T05:41:09;5.95;;;5.55;;
10315;SDS011;5203;48.976;8.306;2022-09-06T05:43:35;5.80;;;5.32;;
10315;SDS011;5203;48.976;8.306;2022-09-06T05:46:01;5.53;;;5.03;;
10315;SDS011;5203;48.976;8.306;2022-09-06T05:48:27;5.43;;;5.03;;
10315;SDS011;5203;48.976;8.306;2022-09-06T05:51:03;5.70;;;5.20;;
10315;SDS011;5203;48.976;8.306;2022-09-06T05:53:34;6.10;;;5.60;;
10315;SDS011;5203;48.976;8.306;2022-09-06T05:56:01;8.35;;;5.72;;
10315;SDS011;5203;48.976;8.306;2022-09-06T05:58:28;5.40;;;5.00;;
10315;SDS011;5203;48.976;8.306;2022-09-06T06:01:04;5.78;;;5.25;;
10315;SDS011;5203;48.976;8.306;2022-09-06T06:03:31;6.00;;;5.60;;
10315;SDS011;5203;48.976;8.306;2022-09-06T06:05:57;6.07;;;5.50;;
10315;SDS011;5203;48.976;8.306;2022-09-06T06:08:23;6.10;;;5.15;;
10315;SDS011;5203;48.976;8.306;2022-09-06T06:10:49;6.43;;;5.93;;
10315;SDS011;5203;48.976;8.306;2022-09-06T06:13:14;6.43;;;5.93;;
10315;SDS011;5203;48.976;8.306;2022-09-06T06:15:40;6.35;;;5.35;;
10315;SDS011;5203;48.976;8.306;2022-09-06T06:18:06;6.00;;;5.50;;
10315;SDS011;5203;48.976;8.306;2022-09-06T06:20:31;7.20;;;6.03;;
10315;SDS011;5203;48.976;8.306;2022-09-06T06:22:57;7.93;;;6.50;;
10315;SDS011;5203;48.976;8.306;2022-09-06T06:25:23;6.22;;;5.72;;
10315;SDS011;5203;48.976;8.306;2022-09-06T06:27:51;7.97;;;6.55;;
10315;SDS011;5203;48.976;8.306;2022-09-06T06:30:17;7.18;;;5.80;;
10315;SDS011;5203;48.976;8.306;2022-09-06T06:32:42;7.88;;;6.55;;
10315;SDS011;5203;48.976;8.306;2022-09-06T06:35:08;7.20;;;6.50;;
10315;SDS011;5203;48.976;8.306;2022-09-06T06:37:34;7.63;;;6.93;;
10315;SDS011;5203;48.976;8.306;2022-09-06T06:40:00;7.10;;;6.50;;
10315;SDS011;5203;48.976;8.306;2022-09-06T06:42:25;7.40;;;6.65;;
10315;SDS011;5203;48.976;8.306;2022-09-06T06:44:51;8.48;;;7.05;;
10315;SDS011;5203;48.976;8.306;2022-09-06T06:47:17;8.68;;;7.93;;
10315;SDS011;5203;48.976;8.306;2022-09-06T06:49:44;13.98;;;7.95;;
10315;SDS011;5203;48.976;8.306;2022-09-06T06:52:09;13.32;;;8.20;;
10315;SDS011;5203;48.976;8.306;2022-09-06T06:54:35;8.73;;;7.05;;
10315;SDS011;5203;48.976;8.306;2022-09-06T06:57:02;8.18;;;7.15;;
10315;SDS011;5203;48.976;8.306;2022-09-06T06:59:29;9.32;;;8.63;;
10315;SDS011;5203;48.976;8.306;2022-09-06T07:01:55;8.30;;;7.57;;
10315;SDS011;5203;48.976;8.306;2022-09-06T07:04:21;8.45;;;7.55;;
10315;SDS011;5203;48.976;8.306;2022-09-06T07:09:15;9.13;;;8.38;;
10315;SDS011;5203;48.976;8.306;2022-09-06T07:11:42;9.15;;;8.45;;
10315;SDS011;5203;48.976;8.306;2022-09-06T07:14:08;9.68;;;8.90;;
10315;SDS011;5203;48.976;8.306;2022-09-06T07:16:33;10.00;;;9.20;;
10315;SDS011;5203;48.976;8.306;2022-09-06T07:18:59;10.70;;;9.68;;
10315;SDS011;5203;48.976;8.306;2022-09-06T07:21:25;10.95;;;10.00;;
10315;SDS011;5203;48.976;8.306;2022-09-06T07:23:51;12.13;;;9.93;;
10315;SDS011;5203;48.976;8.306;2022-09-06T07:26:19;10.57;;;9.55;;
10315;SDS011;5203;48.976;8.306;2022-09-06T07:28:46;10.13;;;9.32;;
10315;SDS011;5203;48.976;8.306;2022-09-06T07:31:12;10.27;;;9.38;;
10315;SDS011;5203;48.976;8.306;2022-09-06T07:33:38;9.43;;;8.63;;
10315;SDS011;5203;48.976;8.306;2022-09-06T07:36:05;10.15;;;9.35;;
10315;SDS011;5203;48.976;8.306;2022-09-06T07:38:32;10.02;;;9.02;;
10315;SDS011;5203;48.976;8.306;2022-09-06T07:40:59;11.68;;;10.25;;
10315;SDS011;5203;48.976;8.306;2022-09-06T07:43:35;10.52;;;9.55;;
10315;SDS011;5203;48.976;8.306;2022-09-06T07:46:03;10.45;;;9.65;;
10315;SDS011;5203;48.976;8.306;2022-09-06T07:48:34;9.68;;;8.77;;
10315;SDS011;5203;48.976;8.306;2022-09-06T07:51:08;10.43;;;9.23;;
10315;SDS011;5203;48.976;8.306;2022-09-06T07:53:39;9.93;;;9.07;;
10315;SDS011;5203;48.976;8.306;2022-09-06T07:56:06;9.80;;;8.63;;
10315;SDS011;5203;48.976;8.306;2022-09-06T07:58:33;10.25;;;9.25;;
10315;SDS011;5203;48.976;8.306;2022-09-06T08:04:18;9.55;;;8.85;;
10315;SDS011;5203;48.976;8.306;2022-09-06T08:06:45;10.15;;;9.35;;
10315;SDS011;5203;48.976;8.306;2022-09-06T08:09:12;9.07;;;8.30;;
10315;SDS011;5203;48.976;8.306;2022-09-06T08:11:38;9.65;;;8.82;;
10315;SDS011;5203;48.976;8.306;2022-09-06T08:14:05;9.98;;;9.27;;
10315;SDS011;5203;48.976;8.306;2022-09-06T08:16:33;9.23;;;8.43;;
10315;SDS011;5203;48.976;8.306;2022-09-06T08:19:01;9.40;;;8.60;;
10315;SDS011;5203;48.976;8.306;2022-09-06T08:21:29;9.57;;;8.68;;
10315;SDS011;5203;48.976;8.306;2022-09-06T08:24:06;9.32;;;8.60;;
10315;SDS011;5203;48.976;8.306;2022-09-06T08:26:35;10.05;;;8.82;;
10315;SDS011;5203;48.976;8.306;2022-09-06T08:29:07;8.68;;;7.90;;
10315;SDS011;5203;48.976;8.306;2022-09-06T08:31:34;9.88;;;8.98;;
10315;SDS011;5203;48.976;8.306;2022-09-06T08:34:02;9.77;;;8.98;;
10315;SDS011;5203;48.976;8.306;2022-09-06T08:36:28;9.52;;;8.63;;
10315;SDS011;5203;48.976;8.306;2022-09-06T08:39:01;8.70;;;7.95;;
10315;SDS011;5203;48.976;8.306;2022-09-06T08:41:30;9.15;;;8.35;;
10315;SDS011;5203;48.976;8.306;2022-09-06T08:44:02;9.02;;;7.93;;
10315;SDS011;5203;48.976;8.306;2022-09-06T08:46:36;9.63;;;8.65;;
10315;SDS011;5203;48.976;8.306;2022-09-06T08:49:04;8.75;;;7.95;;
10315;SDS011;5203;48.976;8.306;2022-09-06T08:51:51;8.27;;;7.63;;
10315;SDS011;5203;48.976;8.306;2022-09-06T09:00:05;8.60;;;7.90;;
10315;SDS011;5203;48.976;8.306;2022-09-06T09:02:45;10.35;;;7.65;;
10315;SDS011;5203;48.976;8.306;2022-09-06T09:05:20;8.77;;;8.00;;
10315;SDS011;5203;48.976;8.306;2022-09-06T09:07:49;9.45;;;8.52;;
10315;SDS011;5203;48.976;8.306;2022-09-06T09:10:29;8.95;;;7.55;;
10315;SDS011;5203;48.976;8.306;2022-09-06T09:13:13;7.53;;;6.88;;
10315;SDS011;5203;48.976;8.306;2022-09-06T09:15:48;7.72;;;7.10;;
10315;SDS011;5203;48.976;8.306;2022-09-06T09:18:15;8.30;;;7.45;;
10315;SDS011;5203;48.976;8.306;2022-09-06T09:20:45;9.25;;;8.40;;
10315;SDS011;5203;48.976;8.306;2022-09-06T09:23:11;8.00;;;7.40;;
10315;SDS011;5203;48.976;8.306;2022-09-06T09:25:37;8.85;;;7.38;;
10315;SDS011;5203;48.976;8.306;2022-09-06T09:28:04;7.88;;;7.28;;
10315;SDS011;5203;48.976;8.306;2022-09-06T09:30:49;7.80;;;7.20;;
10315;SDS011;5203;48.976;8.306;2022-09-06T09:33:20;9.10;;;8.20;;
10315;SDS011;5203;48.976;8.306;2022-09-06T09:35:49;8.25;;;7.45;;
10315;SDS011;5203;48.976;8.306;2022-09-06T09:38:20;8.63;;;7.90;;
10315;SDS011;5203;48.976;8.306;2022-09-06T09:40:51;8.50;;;7.82;;
10315;SDS011;5203;48.976;8.306;2022-09-06T09:43:20;8.85;;;8.15;;
10315;SDS011;5203;48.976;8.306;2022-09-06T09:49:00;8.45;;;7.65;;
10315;SDS011;5203;48.976;8.306;2022-09-06T09:51:37;8.35;;;7.55;;
10315;SDS011;5203;48.976;8.306;2022-09-06T09:54:29;8.55;;;7.93;;
10315;SDS011;5203;48.976;8.306;2022-09-06T09:56:56;7.85;;;7.22;;
10315;SDS011;5203;48.976;8.306;2022-09-06T09:59:26;8.55;;;7.70;;
10315;SDS011;5203;48.976;8.306;2022-09-06T10:01:56;8.85;;;7.95;;
10315;SDS011;5203;48.976;8.306;2022-09-06T10:04:31;8.60;;;7.70;;
10315;SDS011;5203;48.976;8.306;2022-09-06T10:07:10;8.45;;;7.53;;
10315;SDS011;5203;48.976;8.306;2022-09-06T10:12:31;8.85;;;7.15;;
10315;SDS011;5203;48.976;8.306;2022-09-06T10:14:58;8.13;;;7.18;;
10315;SDS011;5203;48.976;8.306;2022-09-06T10:19:54;8.88;;;7.95;;
10315;SDS011;5203;48.976;8.306;2022-09-06T10:22:26;8.30;;;7.60;;
10315;SDS011;5203;48.976;8.306;2022-09-06T10:27:38;7.95;;;6.60;;
10315;SDS011;5203;48.976;8.306;2022-09-06T10:30:23;10.75;;;7.57;;
10315;SDS011;5203;48.976;8.306;2022-09-06T10:32:58;9.85;;;7.53;;
10315;SDS011;5203;48.976;8.306;2022-09-06T10:35:37;8.93;;;6.95;;
10315;SDS011;5203;48.976;8.306;2022-09-06T10:43:19;8.13;;;7.32;;
10315;SDS011;5203;48.976;8.306;2022-09-06T10:45:49;6.93;;;6.22;;
10315;SDS011;5203;48.976;8.306;2022-09-06T10:48:44;10.05;;;7.22;;
10315;SDS011;5203;48.976;8.306;2022-09-06T10:57:02;8.13;;;5.95;;
10315;SDS011;5203;48.976;8.306;2022-09-06T10:59:15;7.25;;;5.50;;
10315;SDS011;5203;48.976;8.306;2022-09-06T11:04:38;6.60;;;5.47;;
10315;SDS011;5203;48.976;8.306;2022-09-06T11:07:26;6.93;;;6.25;;
10315;SDS011;5203;48.976;8.306;2022-09-06T11:12:59;7.43;;;5.97;;
10315;SDS011;5203;48.976;8.306;2022-09-06T11:15:36;7.10;;;5.30;;
10315;SDS011;5203;48.976;8.306;2022-09-06T11:20:58;7.78;;;5.22;;
10315;SDS011;5203;48.976;8.306;2022-09-06T11:29:26;5.97;;;4.97;;
10315;SDS011;5203;48.976;8.306;2022-09-06T11:31:58;6.07;;;5.30;;
10315;SDS011;5203;48.976;8.306;2022-09-06T11:37:04;6.15;;;5.10;;
10315;SDS011;5203;48.976;8.306;2022-09-06T11:42:07;6.45;;;5.40;;
10315;SDS011;5203;48.976;8.306;2022-09-06T11:58:00;5.60;;;5.10;;
10315;SDS011;5203;48.976;8.306;2022-09-06T12:00:28;8.45;;;5.28;;
10315;SDS011;5203;48.976;8.306;2022-09-06T12:02:56;7.03;;;5.18;;
10315;SDS011;5203;48.976;8.306;2022-09-06T12:05:23;4.85;;;4.45;;
10315;SDS011;5203;48.976;8.306;2022-09-06T12:10:49;5.93;;;5.30;;
10315;SDS011;5203;48.976;8.306;2022-09-06T12:13:54;7.10;;;5.00;;
10315;SDS011;5203;48.976;8.306;2022-09-06T12:16:17;6.43;;;5.13;;
10315;SDS011;5203;48.976;8.306;2022-09-06T12:23:55;7.38;;;5.10;;
10315;SDS011;5203;48.976;8.306;2022-09-06T12:29:11;8.55;;;5.25;;
10315;SDS011;5203;48.976;8.306;2022-09-06T12:31:38;5.60;;;5.10;;
10315;SDS011;5203;48.976;8.306;2022-09-06T12:34:08;6.88;;;5.05;;
10315;SDS011;5203;48.976;8.306;2022-09-06T12:39:22;6.97;;;5.18;;
10315;SDS011;5203;48.976;8.306;2022-09-06T12:41:50;5.50;;;4.80;;
10315;SDS011;5203;48.976;8.306;2022-09-06T12:44:39;8.88;;;5.50;;
10315;SDS011;5203;48.976;8.306;2022-09-06T12:47:15;6.20;;;5.40;;
10315;SDS011;5203;48.976;8.306;2022-09-06T12:49:46;7.95;;;4.70;;
10315;SDS011;5203;48.976;8.306;2022-09-06T12:52:17;5.68;;;5.07;;
10315;SDS011;5203;48.976;8.306;2022-09-06T12:54:47;5.40;;;4.85;;
10315;SDS011;5203;48.976;8.306;2022-09-06T12:59:56;5.78;;;5.15;;
10315;SDS011;5203;48.976;8.306;2022-09-06T13:02:28;6.68;;;5.90;;
10315;SDS011;5203;48.976;8.306;2022-09-06T13:05:07;6.00;;;5.40;;
10315;SDS011;5203;48.976;8.306;2022-09-06T13:07:38;7.15;;;5.45;;
10315;SDS011;5203;48.976;8.306;2022-09-06T13:10:08;8.10;;;5.45;;
10315;SDS011;5203;48.976;8.306;2022-09-06T13:12:38;5.95;;;5.38;;
10315;SDS011;5203;48.976;8.306;2022-09-06T13:15:07;5.88;;;5.20;;
10315;SDS011;5203;48.976;8.306;2022-09-06T13:17:35;5.85;;;5.25;;
10315;SDS011;5203;48.976;8.306;2022-09-06T13:20:35;5.10;;;4.70;;
10315;SDS011;5203;48.976;8.306;2022-09-06T13:23:19;6.38;;;4.85;;
10315;SDS011;5203;48.976;8.306;2022-09-06T13:25:46;5.57;;;4.85;;
10315;SDS011;5203;48.976;8.306;2022-09-06T13:28:26;6.82;;;5.45;;
10315;SDS011;5203;48.976;8.306;2022-09-06T13:31:03;6.40;;;5.13;;
10315;SDS011;5203;48.976;8.306;2022-09-06T13:33:38;5.65;;;5.13;;
10315;SDS011;5203;48.976;8.306;2022-09-06T13:38:43;7.05;;;5.22;;
10315;SDS011;5203;48.976;8.306;2022-09-06T13:41:55;6.55;;;5.50;;
10315;SDS011;5203;48.976;8.306;2022-09-06T13:44:16;8.52;;;5.30;;
10315;SDS011;5203;48.976;8.306;2022-09-06T13:46:43;10.73;;;5.55;;
10315;SDS011;5203;48.976;8.306;2022-09-06T13:49:10;5.85;;;5.35;;
10315;SDS011;5203;48.976;8.306;2022-09-06T13:51:37;7.32;;;5.32;;
10315;SDS011;5203;48.976;8.306;2022-09-06T13:54:04;5.75;;;5.30;;
10315;SDS011;5203;48.976;8.306;2022-09-06T13:56:38;7.50;;;5.25;;
10315;SDS011;5203;48.976;8.306;2022-09-06T13:59:05;6.55;;;5.55;;
10315;SDS011;5203;48.976;8.306;2022-09-06T14:01:33;6.00;;;5.40;;
10315;SDS011;5203;48.976;8.306;2022-09-06T14:03:59;5.97;;;4.85;;
10315;SDS011;5203;48.976;8.306;2022-09-06T14:06:25;6.32;;;5.57;;
10315;SDS011;5203;48.976;8.306;2022-09-06T14:08:51;5.55;;;5.15;;
10315;SDS011;5203;48.976;8.306;2022-09-06T14:11:16;7.13;;;5.30;;
10315;SDS011;5203;48.976;8.306;2022-09-06T14:13:42;5.50;;;5.10;;
10315;SDS011;5203;48.976;8.306;2022-09-06T14:16:08;5.68;;;5.15;;
10315;SDS011;5203;48.976;8.306;2022-09-06T14:18:35;5.30;;;4.90;;
10315;SDS011;5203;48.976;8.306;2022-09-06T14:21:00;7.13;;;5.03;;
10315;SDS011;5203;48.976;8.306;2022-09-06T14:23:26;5.88;;;5.35;;
10315;SDS011;5203;48.976;8.306;2022-09-06T14:25:55;5.90;;;5.22;;
10315;SDS011;5203;48.976;8.306;2022-09-06T14:28:22;5.32;;;4.82;;
10315;SDS011;5203;48.976;8.306;2022-09-06T14:30:48;6.28;;;5.00;;
10315;SDS011;5203;48.976;8.306;2022-09-06T14:33:14;5.13;;;4.72;;
10315;SDS011;5203;48.976;8.306;2022-09-06T14:35:40;6.05;;;5.40;;
10315;SDS011;5203;48.976;8.306;2022-09-06T14:38:05;5.97;;;5.40;;
10315;SDS011;5203;48.976;8.306;2022-09-06T14:40:35;6.40;;;5.72;;
10315;SDS011;5203;48.976;8.306;2022-09-06T14:43:02;6.75;;;5.60;;
10315;SDS011;5203;48.976;8.306;2022-09-06T14:45:28;5.82;;;5.28;;
10315;SDS011;5203;48.976;8.306;2022-09-06T14:47:54;5.05;;;4.68;;
10315;SDS011;5203;48.976;8.306;2022-09-06T14:50:20;5.05;;;4.65;;
10315;SDS011;5203;48.976;8.306;2022-09-06T14:52:46;5.10;;;4.75;;
10315;SDS011;5203;48.976;8.306;2022-09-06T14:55:12;5.50;;;5.00;;
10315;SDS011;5203;48.976;8.306;2022-09-06T14:57:38;5.72;;;5.32;;
10315;SDS011;5203;48.976;8.306;2022-09-06T15:00:03;5.15;;;4.78;;
10315;SDS011;5203;48.976;8.306;2022-09-06T15:02:32;5.82;;;5.43;;
10315;SDS011;5203;48.976;8.306;2022-09-06T15:04:59;6.22;;;5.72;;
10315;SDS011;5203;48.976;8.306;2022-09-06T15:07:25;6.18;;;5.68;;
10315;SDS011;5203;48.976;8.306;2022-09-06T15:09:51;6.47;;;5.97;;
10315;SDS011;5203;48.976;8.306;2022-09-06T15:12:17;6.22;;;5.63;;
10315;SDS011;5203;48.976;8.306;2022-09-06T15:14:43;6.05;;;5.55;;
10315;SDS011;5203;48.976;8.306;2022-09-06T15:17:09;8.52;;;6.03;;
10315;SDS011;5203;48.976;8.306;2022-09-06T15:19:35;5.63;;;5.30;;
10315;SDS011;5203;48.976;8.306;2022-09-06T15:22:02;6.30;;;5.80;;
10315;SDS011;5203;48.976;8.306;2022-09-06T15:24:29;7.13;;;5.93;;
10315;SDS011;5203;48.976;8.306;2022-09-06T15:26:55;6.38;;;5.97;;
10315;SDS011;5203;48.976;8.306;2022-09-06T15:29:20;6.60;;;6.10;;
10315;SDS011;5203;48.976;8.306;2022-09-06T15:31:47;7.47;;;6.85;;
10315;SDS011;5203;48.976;8.306;2022-09-06T15:34:24;6.30;;;5.60;;
10315;SDS011;5203;48.976;8.306;2022-09-06T15:36:50;6.75;;;6.15;;
10315;SDS011;5203;48.976;8.306;2022-09-06T15:39:17;6.50;;;6.00;;
10315;SDS011;5203;48.976;8.306;2022-09-06T15:41:43;5.80;;;5.40;;
10315;SDS011;5203;48.976;8.306;2022-09-06T15:44:13;5.50;;;5.10;;
10315;SDS011;5203;48.976;8.306;2022-09-06T15:46:50;5.78;;;5.30;;
10315;SDS011;5203;48.976;8.306;2022-09-06T15:49:24;5.57;;;4.95;;
10315;SDS011;5203;48.976;8.306;2022-09-06T15:51:51;5.68;;;5.38;;
10315;SDS011;5203;48.976;8.306;2022-09-06T15:54:18;5.57;;;5.20;;
10315;SDS011;5203;48.976;8.306;2022-09-06T15:57:05;7.28;;;5.10;;
10315;SDS011;5203;48.976;8.306;2022-09-06T15:59:31;5.47;;;5.07;;
10315;SDS011;5203;48.976;8.306;2022-09-06T16:01:57;5.50;;;5.10;;
10315;SDS011;5203;48.976;8.306;2022-09-06T16:04:22;5.53;;;5.13;;
10315;SDS011;5203;48.976;8.306;2022-09-06T16:06:48;5.85;;;5.28;;
10315;SDS011;5203;48.976;8.306;2022-09-06T16:09:15;5.57;;;5.28;;
10315;SDS011;5203;48.976;8.306;2022-09-06T16:11:44;6.63;;;5.50;;
10315;SDS011;5203;48.976;8.306;2022-09-06T16:14:11;5.93;;;5.40;;
10315;SDS011;5203;48.976;8.306;2022-09-06T16:16:38;5.53;;;5.07;;
10315;SDS011;5203;48.976;8.306;2022-09-06T16:19:04;5.38;;;4.95;;
10315;SDS011;5203;48.976;8.306;2022-09-06T16:21:31;5.18;;;4.78;;
10315;SDS011;5203;48.976;8.306;2022-09-06T16:24:02;5.10;;;4.70;;
10315;SDS011;5203;48.976;8.306;2022-09-06T16:26:31;5.28;;;4.82;;
10315;SDS011;5203;48.976;8.306;2022-09-06T16:28:59;6.43;;;4.75;;
10315;SDS011;5203;48.976;8.306;2022-09-06T16:31:26;5.03;;;4.63;;
10315;SDS011;5203;48.976;8.306;2022-09-06T16:33:52;5.80;;;5.28;;
10315;SDS011;5203;48.976;8.306;2022-09-06T16:36:20;6.07;;;5.65;;
10315;SDS011;5203;48.976;8.306;2022-09-06T16:38:46;6.13;;;5.63;;
10315;SDS011;5203;48.976;8.306;2022-09-06T16:41:14;6.05;;;5.15;;
10315;SDS011;5203;48.976;8.306;2022-09-06T16:43:44;6.97;;;5.55;;
10315;SDS011;5203;48.976;8.306;2022-09-06T16:46:10;5.90;;;5.40;;
10315;SDS011;5203;48.976;8.306;2022-09-06T16:48:37;5.25;;;4.88;;
10315;SDS011;5203;48.976;8.306;2022-09-06T16:51:09;6.13;;;5.50;;
10315;SDS011;5203;48.976;8.306;2022-09-06T16:53:40;6.32;;;5.82;;
10315;SDS011;5203;48.976;8.306;2022-09-06T16:56:11;6.20;;;5.32;;
10315;SDS011;5203;48.976;8.306;2022-09-06T16:58:39;5.90;;;5.50;;
10315;SDS011;5203;48.976;8.306;2022-09-06T17:01:09;5.93;;;5.43;;
10315;SDS011;5203;48.976;8.306;2022-09-06T17:03:35;5.45;;;4.95;;
10315;SDS011;5203;48.976;8.306;2022-09-06T17:06:02;6.18;;;5.00;;
10315;SDS011;5203;48.976;8.306;2022-09-06T17:08:29;8.05;;;5.25;;
10315;SDS011;5203;48.976;8.306;2022-09-06T17:10:59;5.80;;;5.43;;